sensor_id;sensor_type;location;lat;lon;timestamp;temperature;humidity
13328;DHT22;6733;51.044;3.746;2022-09-21T00:01:35;10.60;99.90
13328;DHT22;6733;51.044;3.746;2022-09-21T00:04:06;10.60;99.90
13328;DHT22;6733;51.044;3.746;2022-09-21T00:06:34;10.50;99.90
13328;DHT22;6733;51.044;3.746;2022-09-21T00:09:06;10.50;99.90
13328;DHT22;6733;51.044;3.746;2022-09-21T00:11:36;10.50;99.90
13328;DHT22;6733;51.044;3.746;2022-09-21T00:14:09;10.50;99.90
13328;DHT22;6733;51.044;3.746;2022-09-21T00:16:43;10.50;99.90
13328;DHT22;6733;51.044;3.746;2022-09-21T00:19:10;10.50;99.90
13328;DHT22;6733;51.044;3.746;2022-09-21T00:21:37;10.40;99.90
13328;DHT22;6733;51.044;3.746;2022-09-21T00:24:10;10.40;99.90
13328;DHT22;6733;51.044;3.746;2022-09-21T00:26:37;10.40;99.90
13328;DHT22;6733;51.044;3.746;2022-09-21T00:29:04;10.40;99.90
13328;DHT22;6733;51.044;3.746;2022-09-21T00:31:37;10.30;99.90
13328;DHT22;6733;51.044;3.746;2022-09-21T00:34:03;10.30;99.90
13328;DHT22;6733;51.044;3.746;2022-09-21T00:36:33;10.30;99.90
13328;DHT22;6733;51.044;3.746;2022-09-21T00:39:08;10.30;99.90
13328;DHT22;6733;51.044;3.746;2022-09-21T00:41:34;10.30;99.90
13328;DHT22;6733;51.044;3.746;2022-09-21T00:46:54;10.30;99.90
13328;DHT22;6733;51.044;3.746;2022-09-21T00:49:22;10.30;99.90
13328;DHT22;6733;51.044;3.746;2022-09-21T00:51:50;10.30;99.90
13328;DHT22;6733;51.044;3.746;2022-09-21T00:54:28;10.30;99.90
13328;DHT22;6733;51.044;3.746;2022-09-21T00:56:57;10.20;99.90
13328;DHT22;6733;51.044;3.746;2022-09-21T00:59:35;10.20;99.90
13328;DHT22;6733;51.044;3.746;2022-09-21T01:02:09;10.10;99.90
13328;DHT22;6733;51.044;3.746;2022-09-21T01:04:43;10.10;99.90
13328;DHT22;6733;51.044;3.746;2022-09-21T01:07:16;10.10;99.90
13328;DHT22;6733;51.044;3.746;2022-09-21T01:09:54;10.10;99.90
13328;DHT22;6733;51.044;3.746;2022-09-21T01:12:46;10.10;99.90
13328;DHT22;6733;51.044;3.746;2022-09-21T01:18:19;10.00;99.90
13328;DHT22;6733;51.044;3.746;2022-09-21T01:32:21;9.70;99.90
13328;DHT22;6733;51.044;3.746;2022-09-21T01:34:52;9.70;99.90
13328;DHT22;6733;51.044;3.746;2022-09-21T01:37:40;9.70;99.90
13328;DHT22;6733;51.044;3.746;2022-09-21T01:40:22;9.70;99.90
13328;DHT22;6733;51.044;3.746;2022-09-21T01:42:58;9.60;99.90
13328;DHT22;6733;51.044;3.746;2022-09-21T01:45:41;9.60;99.90
13328;DHT22;6733;51.044;3.746;2022-09-21T01:48:17;9.60;99.90
13328;DHT22;6733;51.044;3.746;2022-09-21T01:50:47;9.60;99.90
13328;DHT22;6733;51.044;3.746;2022-09-21T01:53:24;9.60;99.90
13328;DHT22;6733;51.044;3.746;2022-09-21T01:56:00;9.50;99.90
13328;DHT22;6733;51.044;3.746;2022-09-21T02:01:47;9.50;99.90
13328;DHT22;6733;51.044;3.746;2022-09-21T02:04:22;9.40;99.90
13328;DHT22;6733;51.044;3.746;2022-09-21T02:06:49;9.40;99.90
13328;DHT22;6733;51.044;3.746;2022-09-21T02:09:16;9.40;99.90
13328;DHT22;6733;51.044;3.746;2022-09-21T02:11:49;9.40;99.90
13328;DHT22;6733;51.044;3.746;2022-09-21T02:14:20;9.40;99.90
13328;DHT22;6733;51.044;3.746;2022-09-21T02:20:05;9.30;99.90
13328;DHT22;6733;51.044;3.746;2022-09-21T02:25:09;9.30;99.90
13328;DHT22;6733;51.044;3.746;2022-09-21T02:28:11;9.30;99.90
13328;DHT22;6733;51.044;3.746;2022-09-21T02:31:00;9.30;99.90
13328;DHT22;6733;51.044;3.746;2022-09-21T02:36:34;9.20;99.90
13328;DHT22;6733;51.044;3.746;2022-09-21T02:39:08;9.20;99.90
13328;DHT22;6733;51.044;3.746;2022-09-21T02:41:44;9.10;99.90
13328;DHT22;6733;51.044;3.746;2022-09-21T02:44:24;9.10;99.90
13328;DHT22;6733;51.044;3.746;2022-09-21T02:47:09;9.10;99.90
13328;DHT22;6733;51.044;3.746;2022-09-21T02:49:41;9.10;99.90
13328;DHT22;6733;51.044;3.746;2022-09-21T02:52:16;9.10;99.90
13328;DHT22;6733;51.044;3.746;2022-09-21T02:54:47;9.10;99.90
13328;DHT22;6733;51.044;3.746;2022-09-21T02:57:23;9.10;99.90
13328;DHT22;6733;51.044;3.746;2022-09-21T02:59:56;9.00;99.90
13328;DHT22;6733;51.044;3.746;2022-09-21T03:02:41;9.10;99.90
13328;DHT22;6733;51.044;3.746;2022-09-21T03:05:09;9.10;99.90
13328;DHT22;6733;51.044;3.746;2022-09-21T03:07:36;9.10;99.90
13328;DHT22;6733;51.044;3.746;2022-09-21T03:10:09;9.10;99.90
13328;DHT22;6733;51.044;3.746;2022-09-21T03:12:36;9.10;99.90
13328;DHT22;6733;51.044;3.746;2022-09-21T03:15:03;9.10;99.90
13328;DHT22;6733;51.044;3.746;2022-09-21T03:17:36;9.10;99.90
13328;DHT22;6733;51.044;3.746;2022-09-21T03:20:02;9.10;99.90
13328;DHT22;6733;51.044;3.746;2022-09-21T03:22:29;9.10;99.90
13328;DHT22;6733;51.044;3.746;2022-09-21T03:25:01;9.10;99.90
13328;DHT22;6733;51.044;3.746;2022-09-21T03:27:27;9.10;99.90
13328;DHT22;6733;51.044;3.746;2022-09-21T03:29:54;9.20;99.90
13328;DHT22;6733;51.044;3.746;2022-09-21T03:32:27;9.20;99.90
13328;DHT22;6733;51.044;3.746;2022-09-21T03:34:53;9.20;99.90
13328;DHT22;6733;51.044;3.746;2022-09-21T03:37:20;9.10;99.90
13328;DHT22;6733;51.044;3.746;2022-09-21T03:39:53;9.10;99.90
13328;DHT22;6733;51.044;3.746;2022-09-21T03:42:19;9.10;99.90
13328;DHT22;6733;51.044;3.746;2022-09-21T03:44:46;9.10;99.90
13328;DHT22;6733;51.044;3.746;2022-09-21T03:47:18;9.10;99.90
13328;DHT22;6733;51.044;3.746;2022-09-21T03:49:45;9.20;99.90
13328;DHT22;6733;51.044;3.746;2022-09-21T03:52:11;9.20;99.90
13328;DHT22;6733;51.044;3.746;2022-09-21T03:54:44;9.10;99.90
13328;DHT22;6733;51.044;3.746;2022-09-21T03:57:10;9.00;99.90
13328;DHT22;6733;51.044;3.746;2022-09-21T03:59:37;9.00;99.90
13328;DHT22;6733;51.044;3.746;2022-09-21T04:02:16;8.90;99.90
13328;DHT22;6733;51.044;3.746;2022-09-21T04:04:42;8.90;99.90
13328;DHT22;6733;51.044;3.746;2022-09-21T04:07:08;8.90;99.90
13328;DHT22;6733;51.044;3.746;2022-09-21T04:09:41;8.90;99.90
13328;DHT22;6733;51.044;3.746;2022-09-21T04:12:08;8.90;99.90
13328;DHT22;6733;51.044;3.746;2022-09-21T04:14:34;8.80;99.90
13328;DHT22;6733;51.044;3.746;2022-09-21T04:17:08;8.80;99.90
13328;DHT22;6733;51.044;3.746;2022-09-21T04:19:37;8.80;99.90
13328;DHT22;6733;51.044;3.746;2022-09-21T04:22:03;8.70;99.90
13328;DHT22;6733;51.044;3.746;2022-09-21T04:24:36;8.70;99.90
13328;DHT22;6733;51.044;3.746;2022-09-21T04:27:09;8.70;99.90
13328;DHT22;6733;51.044;3.746;2022-09-21T04:29:37;8.70;99.90
13328;DHT22;6733;51.044;3.746;2022-09-21T04:32:11;8.70;99.90
13328;DHT22;6733;51.044;3.746;2022-09-21T04:34:37;8.70;99.90
13328;DHT22;6733;51.044;3.746;2022-09-21T04:37:05;8.70;99.90
13328;DHT22;6733;51.044;3.746;2022-09-21T04:39:41;8.70;99.90
13328;DHT22;6733;51.044;3.746;2022-09-21T04:42:08;8.60;99.90
13328;DHT22;6733;51.044;3.746;2022-09-21T04:44:35;8.50;99.90
13328;DHT22;6733;51.044;3.746;2022-09-21T04:47:07;8.50;99.90
13328;DHT22;6733;51.044;3.746;2022-09-21T04:49:36;8.50;99.90
13328;DHT22;6733;51.044;3.746;2022-09-21T04:52:03;8.40;99.90
13328;DHT22;6733;51.044;3.746;2022-09-21T04:54:37;8.50;99.90
13328;DHT22;6733;51.044;3.746;2022-09-21T04:57:03;8.50;99.90
13328;DHT22;6733;51.044;3.746;2022-09-21T04:59:30;8.50;99.90
13328;DHT22;6733;51.044;3.746;2022-09-21T05:02:02;8.50;99.90
13328;DHT22;6733;51.044;3.746;2022-09-21T05:04:35;8.60;99.90
13328;DHT22;6733;51.044;3.746;2022-09-21T05:07:02;8.50;99.90
13328;DHT22;6733;51.044;3.746;2022-09-21T05:09:35;8.50;99.90
13328;DHT22;6733;51.044;3.746;2022-09-21T05:12:20;8.50;99.90
13328;DHT22;6733;51.044;3.746;2022-09-21T05:14:53;8.60;99.90
13328;DHT22;6733;51.044;3.746;2022-09-21T05:17:21;8.60;99.90
13328;DHT22;6733;51.044;3.746;2022-09-21T05:19:48;8.60;99.90
13328;DHT22;6733;51.044;3.746;2022-09-21T05:22:21;8.70;99.90
13328;DHT22;6733;51.044;3.746;2022-09-21T05:24:50;8.70;99.90
13328;DHT22;6733;51.044;3.746;2022-09-21T05:27:16;8.70;99.90
13328;DHT22;6733;51.044;3.746;2022-09-21T05:29:50;8.70;99.90
13328;DHT22;6733;51.044;3.746;2022-09-21T05:32:46;8.80;99.90
13328;DHT22;6733;51.044;3.746;2022-09-21T05:35:37;8.80;99.90
13328;DHT22;6733;51.044;3.746;2022-09-21T05:38:17;8.80;99.90
13328;DHT22;6733;51.044;3.746;2022-09-21T05:40:51;8.70;99.90
13328;DHT22;6733;51.044;3.746;2022-09-21T05:43:19;8.70;99.90
13328;DHT22;6733;51.044;3.746;2022-09-21T05:45:50;8.70;99.90
13328;DHT22;6733;51.044;3.746;2022-09-21T05:48:38;8.70;99.90
13328;DHT22;6733;51.044;3.746;2022-09-21T05:57:00;8.70;99.90
13328;DHT22;6733;51.044;3.746;2022-09-21T06:05:30;8.90;99.90
13328;DHT22;6733;51.044;3.746;2022-09-21T06:07:56;8.90;99.90
13328;DHT22;6733;51.044;3.746;2022-09-21T06:10:23;9.00;99.90
13328;DHT22;6733;51.044;3.746;2022-09-21T06:12:56;9.00;99.90
13328;DHT22;6733;51.044;3.746;2022-09-21T06:15:25;9.10;99.90
13328;DHT22;6733;51.044;3.746;2022-09-21T06:17:57;9.10;99.90
13328;DHT22;6733;51.044;3.746;2022-09-21T06:20:31;9.10;99.90
13328;DHT22;6733;51.044;3.746;2022-09-21T06:23:02;9.00;99.90
13328;DHT22;6733;51.044;3.746;2022-09-21T06:25:28;9.10;99.90
13328;DHT22;6733;51.044;3.746;2022-09-21T06:28:11;9.10;99.90
13328;DHT22;6733;51.044;3.746;2022-09-21T06:30:38;9.20;99.90
13328;DHT22;6733;51.044;3.746;2022-09-21T06:33:13;9.30;99.90
13328;DHT22;6733;51.044;3.746;2022-09-21T06:38:25;9.50;99.90
13328;DHT22;6733;51.044;3.746;2022-09-21T06:40:59;9.60;99.90
13328;DHT22;6733;51.044;3.746;2022-09-21T06:43:32;9.70;99.90
13328;DHT22;6733;51.044;3.746;2022-09-21T06:46:00;9.70;99.90
13328;DHT22;6733;51.044;3.746;2022-09-21T06:48:27;9.80;99.90
13328;DHT22;6733;51.044;3.746;2022-09-21T06:51:02;9.90;99.90
13328;DHT22;6733;51.044;3.746;2022-09-21T06:53:30;10.00;99.90
13328;DHT22;6733;51.044;3.746;2022-09-21T06:58:40;10.10;99.90
13328;DHT22;6733;51.044;3.746;2022-09-21T07:01:20;10.20;99.90
13328;DHT22;6733;51.044;3.746;2022-09-21T07:03:53;10.20;99.90
13328;DHT22;6733;51.044;3.746;2022-09-21T07:06:19;10.40;99.90
13328;DHT22;6733;51.044;3.746;2022-09-21T07:08:47;10.40;99.90
13328;DHT22;6733;51.044;3.746;2022-09-21T07:11:20;10.50;99.90
13328;DHT22;6733;51.044;3.746;2022-09-21T07:13:49;10.60;99.90
13328;DHT22;6733;51.044;3.746;2022-09-21T07:16:22;10.60;99.90
13328;DHT22;6733;51.044;3.746;2022-09-21T07:18:49;10.70;99.90
13328;DHT22;6733;51.044;3.746;2022-09-21T07:21:15;10.80;99.90
13328;DHT22;6733;51.044;3.746;2022-09-21T07:23:44;10.80;99.90
13328;DHT22;6733;51.044;3.746;2022-09-21T07:26:12;10.90;99.90
13328;DHT22;6733;51.044;3.746;2022-09-21T07:28:39;11.00;99.90
13328;DHT22;6733;51.044;3.746;2022-09-21T07:31:14;11.10;99.90
13328;DHT22;6733;51.044;3.746;2022-09-21T07:33:41;11.20;99.90
13328;DHT22;6733;51.044;3.746;2022-09-21T07:36:09;11.30;99.90
13328;DHT22;6733;51.044;3.746;2022-09-21T07:38:37;11.40;99.90
13328;DHT22;6733;51.044;3.746;2022-09-21T07:41:09;11.50;99.90
13328;DHT22;6733;51.044;3.746;2022-09-21T07:43:36;11.60;99.90
13328;DHT22;6733;51.044;3.746;2022-09-21T07:46:13;11.70;99.90
13328;DHT22;6733;51.044;3.746;2022-09-21T07:48:40;11.90;99.90
13328;DHT22;6733;51.044;3.746;2022-09-21T07:51:09;12.10;99.90
13328;DHT22;6733;51.044;3.746;2022-09-21T07:53:38;12.30;99.90
13328;DHT22;6733;51.044;3.746;2022-09-21T07:56:12;12.50;99.90
13328;DHT22;6733;51.044;3.746;2022-09-21T07:58:41;12.60;99.90
13328;DHT22;6733;51.044;3.746;2022-09-21T08:01:27;12.70;99.90
13328;DHT22;6733;51.044;3.746;2022-09-21T08:03:55;12.90;99.90
13328;DHT22;6733;51.044;3.746;2022-09-21T08:06:24;13.00;99.90
13328;DHT22;6733;51.044;3.746;2022-09-21T08:08:52;13.20;99.90
13328;DHT22;6733;51.044;3.746;2022-09-21T08:11:20;13.20;99.90
13328;DHT22;6733;51.044;3.746;2022-09-21T08:13:58;13.40;99.90
13328;DHT22;6733;51.044;3.746;2022-09-21T08:16:26;13.60;99.90
13328;DHT22;6733;51.044;3.746;2022-09-21T08:18:57;13.70;99.90
13328;DHT22;6733;51.044;3.746;2022-09-21T08:21:23;13.90;99.90
13328;DHT22;6733;51.044;3.746;2022-09-21T08:23:50;13.90;99.90
13328;DHT22;6733;51.044;3.746;2022-09-21T08:26:18;14.10;99.90
13328;DHT22;6733;51.044;3.746;2022-09-21T08:28:48;14.20;99.90
13328;DHT22;6733;51.044;3.746;2022-09-21T08:31:18;14.30;99.90
13328;DHT22;6733;51.044;3.746;2022-09-21T08:33:47;14.40;99.90
13328;DHT22;6733;51.044;3.746;2022-09-21T08:36:18;14.70;99.90
13328;DHT22;6733;51.044;3.746;2022-09-21T08:38:45;14.60;99.90
13328;DHT22;6733;51.044;3.746;2022-09-21T08:41:18;14.70;99.90
13328;DHT22;6733;51.044;3.746;2022-09-21T08:43:53;15.00;99.90
13328;DHT22;6733;51.044;3.746;2022-09-21T08:46:25;15.10;99.90
13328;DHT22;6733;51.044;3.746;2022-09-21T08:49:04;15.30;99.90
13328;DHT22;6733;51.044;3.746;2022-09-21T08:51:40;15.60;99.90
13328;DHT22;6733;51.044;3.746;2022-09-21T08:54:14;15.70;99.90
13328;DHT22;6733;51.044;3.746;2022-09-21T08:56:42;15.80;99.90
13328;DHT22;6733;51.044;3.746;2022-09-21T08:59:12;15.80;99.90
13328;DHT22;6733;51.044;3.746;2022-09-21T09:10:37;16.40;99.90
13328;DHT22;6733;51.044;3.746;2022-09-21T09:13:50;16.50;99.90
13328;DHT22;6733;51.044;3.746;2022-09-21T09:22:05;17.20;99.90
13328;DHT22;6733;51.044;3.746;2022-09-21T09:24:41;17.20;99.90
13328;DHT22;6733;51.044;3.746;2022-09-21T09:27:21;17.30;99.90
13328;DHT22;6733;51.044;3.746;2022-09-21T09:30:05;17.50;99.90
13328;DHT22;6733;51.044;3.746;2022-09-21T09:33:04;17.60;99.90
13328;DHT22;6733;51.044;3.746;2022-09-21T09:35:45;17.30;99.90
13328;DHT22;6733;51.044;3.746;2022-09-21T09:38:33;17.50;99.90
13328;DHT22;6733;51.044;3.746;2022-09-21T09:47:19;17.10;99.90
13328;DHT22;6733;51.044;3.746;2022-09-21T09:52:33;17.80;99.90
13328;DHT22;6733;51.044;3.746;2022-09-21T09:55:25;17.80;99.90
13328;DHT22;6733;51.044;3.746;2022-09-21T09:57:57;17.70;99.90
13328;DHT22;6733;51.044;3.746;2022-09-21T10:00:24;18.10;99.90
13328;DHT22;6733;51.044;3.746;2022-09-21T10:02:52;18.50;99.90
13328;DHT22;6733;51.044;3.746;2022-09-21T10:05:32;18.00;99.90
13328;DHT22;6733;51.044;3.746;2022-09-21T10:08:01;18.10;99.90
13328;DHT22;6733;51.044;3.746;2022-09-21T10:13:15;18.70;99.90
13328;DHT22;6733;51.044;3.746;2022-09-21T10:19:00;19.10;99.90
13328;DHT22;6733;51.044;3.746;2022-09-21T10:21:39;18.90;99.90
13328;DHT22;6733;51.044;3.746;2022-09-21T10:24:32;18.90;99.90
13328;DHT22;6733;51.044;3.746;2022-09-21T10:27:15;18.60;99.90
13328;DHT22;6733;51.044;3.746;2022-09-21T10:29:44;19.10;99.90
13328;DHT22;6733;51.044;3.746;2022-09-21T10:35:22;19.30;99.90
13328;DHT22;6733;51.044;3.746;2022-09-21T10:38:16;19.40;99.90
13328;DHT22;6733;51.044;3.746;2022-09-21T10:40:42;19.50;99.90
13328;DHT22;6733;51.044;3.746;2022-09-21T10:45:53;19.30;99.90
13328;DHT22;6733;51.044;3.746;2022-09-21T10:48:23;19.50;99.90
13328;DHT22;6733;51.044;3.746;2022-09-21T10:50:51;19.60;99.90
13328;DHT22;6733;51.044;3.746;2022-09-21T10:53:32;19.10;99.90
13328;DHT22;6733;51.044;3.746;2022-09-21T10:58:29;19.30;99.90
13328;DHT22;6733;51.044;3.746;2022-09-21T11:01:12;19.60;99.90
13328;DHT22;6733;51.044;3.746;2022-09-21T11:03:43;19.40;99.90
13328;DHT22;6733;51.044;3.746;2022-09-21T11:07:06;19.10;99.90
13328;DHT22;6733;51.044;3.746;2022-09-21T11:09:13;19.20;99.90
13328;DHT22;6733;51.044;3.746;2022-09-21T11:12:05;19.50;99.90
13328;DHT22;6733;51.044;3.746;2022-09-21T11:20:32;19.30;99.90
13328;DHT22;6733;51.044;3.746;2022-09-21T11:25:42;19.20;99.90
13328;DHT22;6733;51.044;3.746;2022-09-21T11:28:30;19.50;99.90
13328;DHT22;6733;51.044;3.746;2022-09-21T11:42:38;19.50;99.90
13328;DHT22;6733;51.044;3.746;2022-09-21T11:45:32;19.20;99.90
13328;DHT22;6733;51.044;3.746;2022-09-21T11:50:55;19.10;99.90
13328;DHT22;6733;51.044;3.746;2022-09-21T11:56:29;18.80;99.90
13328;DHT22;6733;51.044;3.746;2022-09-21T12:07:33;19.30;99.90
13328;DHT22;6733;51.044;3.746;2022-09-21T12:13:31;19.50;99.90
13328;DHT22;6733;51.044;3.746;2022-09-21T12:16:05;19.00;99.90
13328;DHT22;6733;51.044;3.746;2022-09-21T12:21:21;18.80;99.90
13328;DHT22;6733;51.044;3.746;2022-09-21T12:23:58;18.80;99.90
13328;DHT22;6733;51.044;3.746;2022-09-21T12:26:31;18.80;99.90
13328;DHT22;6733;51.044;3.746;2022-09-21T12:29:27;18.90;99.90
13328;DHT22;6733;51.044;3.746;2022-09-21T12:34:40;19.20;99.90
13328;DHT22;6733;51.044;3.746;2022-09-21T12:37:12;19.20;99.90
13328;DHT22;6733;51.044;3.746;2022-09-21T12:45:31;19.70;99.90
13328;DHT22;6733;51.044;3.746;2022-09-21T12:48:05;19.40;99.90
13328;DHT22;6733;51.044;3.746;2022-09-21T12:50:43;19.20;99.90
13328;DHT22;6733;51.044;3.746;2022-09-21T12:53:20;19.00;99.90
13328;DHT22;6733;51.044;3.746;2022-09-21T12:58:45;18.90;99.90
13328;DHT22;6733;51.044;3.746;2022-09-21T13:04:33;18.40;99.90
13328;DHT22;6733;51.044;3.746;2022-09-21T13:09:39;18.20;99.90
13328;DHT22;6733;51.044;3.746;2022-09-21T13:12:16;18.10;99.90
13328;DHT22;6733;51.044;3.746;2022-09-21T13:14:51;18.20;99.90
13328;DHT22;6733;51.044;3.746;2022-09-21T13:17:24;18.60;99.90
13328;DHT22;6733;51.044;3.746;2022-09-21T13:19:57;18.90;99.90
13328;DHT22;6733;51.044;3.746;2022-09-21T13:22:25;18.90;99.90
13328;DHT22;6733;51.044;3.746;2022-09-21T13:30:48;19.10;99.90
13328;DHT22;6733;51.044;3.746;2022-09-21T13:33:38;19.30;99.90
13328;DHT22;6733;51.044;3.746;2022-09-21T13:36:32;19.30;99.90
13328;DHT22;6733;51.044;3.746;2022-09-21T13:39:13;19.80;99.90
13328;DHT22;6733;51.044;3.746;2022-09-21T13:41:40;19.60;99.90
13328;DHT22;6733;51.044;3.746;2022-09-21T13:46:52;20.00;99.90
13328;DHT22;6733;51.044;3.746;2022-09-21T13:49:23;19.80;99.90
13328;DHT22;6733;51.044;3.746;2022-09-21T13:52:00;20.20;99.90
13328;DHT22;6733;51.044;3.746;2022-09-21T13:54:48;20.40;99.90
13328;DHT22;6733;51.044;3.746;2022-09-21T13:57:37;20.50;99.90
13328;DHT22;6733;51.044;3.746;2022-09-21T14:03:05;19.70;99.90
13328;DHT22;6733;51.044;3.746;2022-09-21T14:05:46;19.50;99.90
13328;DHT22;6733;51.044;3.746;2022-09-21T14:10:54;19.30;99.90
13328;DHT22;6733;51.044;3.746;2022-09-21T14:13:35;19.30;99.90
13328;DHT22;6733;51.044;3.746;2022-09-21T14:16:24;19.20;99.90
13328;DHT22;6733;51.044;3.746;2022-09-21T14:18:53;19.00;99.90
13328;DHT22;6733;51.044;3.746;2022-09-21T14:21:20;19.00;99.90
13328;DHT22;6733;51.044;3.746;2022-09-21T14:29:24;18.60;99.90
13328;DHT22;6733;51.044;3.746;2022-09-21T14:32:02;18.60;99.90
13328;DHT22;6733;51.044;3.746;2022-09-21T14:34:38;18.60;99.90
13328;DHT22;6733;51.044;3.746;2022-09-21T14:37:24;18.60;99.90
13328;DHT22;6733;51.044;3.746;2022-09-21T14:39:53;18.70;99.90
13328;DHT22;6733;51.044;3.746;2022-09-21T14:42:23;18.80;99.90
13328;DHT22;6733;51.044;3.746;2022-09-21T14:45:01;18.60;99.90
13328;DHT22;6733;51.044;3.746;2022-09-21T15:00:57;21.30;99.90
13328;DHT22;6733;51.044;3.746;2022-09-21T15:06:37;21.10;99.90
13328;DHT22;6733;51.044;3.746;2022-09-21T15:12:34;21.30;99.90
13328;DHT22;6733;51.044;3.746;2022-09-21T15:15:28;21.70;99.90
13328;DHT22;6733;51.044;3.746;2022-09-21T15:17:58;23.50;99.50
13328;DHT22;6733;51.044;3.746;2022-09-21T15:20:28;22.50;99.30
13328;DHT22;6733;51.044;3.746;2022-09-21T15:22:56;20.70;99.90
13328;DHT22;6733;51.044;3.746;2022-09-21T15:25:24;20.30;99.90
13328;DHT22;6733;51.044;3.746;2022-09-21T15:27:51;20.00;99.90
13328;DHT22;6733;51.044;3.746;2022-09-21T15:30:24;21.50;99.90
13328;DHT22;6733;51.044;3.746;2022-09-21T15:32:55;22.70;99.90
13328;DHT22;6733;51.044;3.746;2022-09-21T15:35:27;23.60;98.60
13328;DHT22;6733;51.044;3.746;2022-09-21T15:37:55;23.70;97.20
13328;DHT22;6733;51.044;3.746;2022-09-21T15:40:31;23.50;97.60
13328;DHT22;6733;51.044;3.746;2022-09-21T15:43:04;23.20;97.40
13328;DHT22;6733;51.044;3.746;2022-09-21T15:48:38;24.30;96.30
13328;DHT22;6733;51.044;3.746;2022-09-21T15:51:14;25.10;94.40
13328;DHT22;6733;51.044;3.746;2022-09-21T15:53:53;25.00;93.50
13328;DHT22;6733;51.044;3.746;2022-09-21T15:56:23;24.90;93.90
13328;DHT22;6733;51.044;3.746;2022-09-21T15:58:57;25.10;92.90
13328;DHT22;6733;51.044;3.746;2022-09-21T16:01:24;25.40;92.40
13328;DHT22;6733;51.044;3.746;2022-09-21T16:04:06;23.70;93.40
13328;DHT22;6733;51.044;3.746;2022-09-21T16:06:38;21.70;96.20
13328;DHT22;6733;51.044;3.746;2022-09-21T16:11:56;19.40;99.40
13328;DHT22;6733;51.044;3.746;2022-09-21T16:14:23;19.20;99.90
13328;DHT22;6733;51.044;3.746;2022-09-21T16:22:29;18.80;99.90
13328;DHT22;6733;51.044;3.746;2022-09-21T16:25:01;18.30;99.90
13328;DHT22;6733;51.044;3.746;2022-09-21T16:27:30;18.30;99.90
13328;DHT22;6733;51.044;3.746;2022-09-21T16:29:58;18.20;99.90
13328;DHT22;6733;51.044;3.746;2022-09-21T16:32:34;18.10;99.90
13328;DHT22;6733;51.044;3.746;2022-09-21T16:37:45;17.70;99.90
13328;DHT22;6733;51.044;3.746;2022-09-21T16:40:12;17.60;99.90
13328;DHT22;6733;51.044;3.746;2022-09-21T16:42:39;17.50;99.90
13328;DHT22;6733;51.044;3.746;2022-09-21T16:45:18;17.40;99.90
13328;DHT22;6733;51.044;3.746;2022-09-21T16:47:46;17.40;99.90
13328;DHT22;6733;51.044;3.746;2022-09-21T16:50:12;17.30;99.90
13328;DHT22;6733;51.044;3.746;2022-09-21T16:52:41;17.20;99.90
13328;DHT22;6733;51.044;3.746;2022-09-21T16:55:10;17.10;99.90
13328;DHT22;6733;51.044;3.746;2022-09-21T16:57:36;17.00;99.90
13328;DHT22;6733;51.044;3.746;2022-09-21T17:00:08;17.00;99.90
13328;DHT22;6733;51.044;3.746;2022-09-21T17:02:35;17.00;99.90
13328;DHT22;6733;51.044;3.746;2022-09-21T17:05:01;16.90;99.90
13328;DHT22;6733;51.044;3.746;2022-09-21T17:07:27;16.90;99.90
13328;DHT22;6733;51.044;3.746;2022-09-21T17:09:53;16.90;99.90
13328;DHT22;6733;51.044;3.746;2022-09-21T17:12:19;16.80;99.90
13328;DHT22;6733;51.044;3.746;2022-09-21T17:14:46;16.80;99.90
13328;DHT22;6733;51.044;3.746;2022-09-21T17:17:22;16.80;99.90
13328;DHT22;6733;51.044;3.746;2022-09-21T17:19:50;16.70;99.90
13328;DHT22;6733;51.044;3.746;2022-09-21T17:22:17;16.60;99.90
13328;DHT22;6733;51.044;3.746;2022-09-21T17:24:50;16.60;99.90
13328;DHT22;6733;51.044;3.746;2022-09-21T17:27:17;16.50;99.90
13328;DHT22;6733;51.044;3.746;2022-09-21T17:29:44;16.40;99.90
13328;DHT22;6733;51.044;3.746;2022-09-21T17:32:18;16.40;99.90
13328;DHT22;6733;51.044;3.746;2022-09-21T17:34:45;16.30;99.90
13328;DHT22;6733;51.044;3.746;2022-09-21T17:37:11;16.20;99.90
13328;DHT22;6733;51.044;3.746;2022-09-21T17:39:38;16.10;99.90
13328;DHT22;6733;51.044;3.746;2022-09-21T17:42:16;16.00;99.90
13328;DHT22;6733;51.044;3.746;2022-09-21T17:47:27;15.90;99.90
13328;DHT22;6733;51.044;3.746;2022-09-21T17:52:38;15.80;99.90
13328;DHT22;6733;51.044;3.746;2022-09-21T17:55:23;15.70;99.90
13328;DHT22;6733;51.044;3.746;2022-09-21T18:03:23;15.40;99.90
13328;DHT22;6733;51.044;3.746;2022-09-21T18:05:51;15.20;99.90
13328;DHT22;6733;51.044;3.746;2022-09-21T18:08:28;15.20;99.90
13328;DHT22;6733;51.044;3.746;2022-09-21T18:13:43;15.10;99.90
13328;DHT22;6733;51.044;3.746;2022-09-21T18:16:26;15.10;99.90
13328;DHT22;6733;51.044;3.746;2022-09-21T18:21:42;15.10;99.90
13328;DHT22;6733;51.044;3.746;2022-09-21T18:24:25;15.00;99.90
13328;DHT22;6733;51.044;3.746;2022-09-21T18:26:56;14.90;99.90
13328;DHT22;6733;51.044;3.746;2022-09-21T18:29:25;14.90;99.90
13328;DHT22;6733;51.044;3.746;2022-09-21T18:34:56;14.70;99.90
13328;DHT22;6733;51.044;3.746;2022-09-21T18:37:57;14.70;99.90
13328;DHT22;6733;51.044;3.746;2022-09-21T18:40:39;14.60;99.90
13328;DHT22;6733;51.044;3.746;2022-09-21T18:46:02;14.40;99.90
13328;DHT22;6733;51.044;3.746;2022-09-21T18:54:20;14.30;99.90
13328;DHT22;6733;51.044;3.746;2022-09-21T18:56:47;14.20;99.90
13328;DHT22;6733;51.044;3.746;2022-09-21T18:59:14;14.20;99.90
13328;DHT22;6733;51.044;3.746;2022-09-21T19:01:42;14.10;99.90
13328;DHT22;6733;51.044;3.746;2022-09-21T19:04:09;14.10;99.90
13328;DHT22;6733;51.044;3.746;2022-09-21T19:06:54;14.10;99.90
13328;DHT22;6733;51.044;3.746;2022-09-21T19:09:41;14.00;99.90
13328;DHT22;6733;51.044;3.746;2022-09-21T19:12:23;13.90;99.90
13328;DHT22;6733;51.044;3.746;2022-09-21T19:15:20;13.80;99.90
13328;DHT22;6733;51.044;3.746;2022-09-21T19:26:40;13.80;99.90
13328;DHT22;6733;51.044;3.746;2022-09-21T19:32:38;13.70;99.90
13328;DHT22;6733;51.044;3.746;2022-09-21T19:35:32;13.70;99.90
13328;DHT22;6733;51.044;3.746;2022-09-21T19:38:00;13.60;99.90
13328;DHT22;6733;51.044;3.746;2022-09-21T19:40:29;13.50;99.90
13328;DHT22;6733;51.044;3.746;2022-09-21T19:43:15;13.60;99.90
13328;DHT22;6733;51.044;3.746;2022-09-21T19:48:48;13.50;99.90
13328;DHT22;6733;51.044;3.746;2022-09-21T19:53:49;13.30;99.90
13328;DHT22;6733;51.044;3.746;2022-09-21T19:56:40;13.40;99.90
13328;DHT22;6733;51.044;3.746;2022-09-21T19:59:25;13.30;99.90
13328;DHT22;6733;51.044;3.746;2022-09-21T20:02:16;13.20;99.90
13328;DHT22;6733;51.044;3.746;2022-09-21T20:04:51;13.10;99.90
13328;DHT22;6733;51.044;3.746;2022-09-21T20:10:05;13.10;99.90
13328;DHT22;6733;51.044;3.746;2022-09-21T20:12:42;13.00;99.90
13328;DHT22;6733;51.044;3.746;2022-09-21T20:15:16;13.00;99.90
13328;DHT22;6733;51.044;3.746;2022-09-21T20:18:40;12.90;99.90
13328;DHT22;6733;51.044;3.746;2022-09-21T20:20:46;12.90;99.90
13328;DHT22;6733;51.044;3.746;2022-09-21T20:23:13;12.80;99.90
13328;DHT22;6733;51.044;3.746;2022-09-21T20:25:59;12.70;99.90
13328;DHT22;6733;51.044;3.746;2022-09-21T20:28:28;12.70;99.90
13328;DHT22;6733;51.044;3.746;2022-09-21T20:30:54;12.70;99.90
13328;DHT22;6733;51.044;3.746;2022-09-21T20:33:22;12.60;99.90